Bataysk — UBXE3 — position and weather

sailwx.info

Track history (hours):
 
Tides and Currents Weather Stations Pressure Air Temp Water Temp Dewpoint Dewpoint Depression Visibility Wind Speed Wind Dir Waves Ship Positions

Bataysk

Last reported at 2017-Jun-23 15:37 UTC. Time now 2017-Jun-25 17:21 UTC.
Position N 45°29' E 036°44'.

Length 130 m; draft 2.7 m.

Type: Cargo ship. MMSI: 273347320.

Date/timePositionNaut miles runAvg speedWind from/ knotsBaromVisibWave heightAir tempDewpointWater temp
2017-Jun-23 15:37N 45°29' E 036°44'1 8.1
2017-Jun-23 15:29N 45°28' E 036°43'4 8.1
2017-Jun-23 15:00N 45°25' E 036°41'7 7.4
2017-Jun-23 14:00N 45°20' E 036°34'4 6.8
2017-Jun-23 13:26N 45°17' E 036°29'3 5.7
2017-Jun-23 12:58N 45°15' E 036°29'4 7.9
2017-Jun-23 12:30N 45°11' E 036°29'1 0.7
2017-Jun-23 11:37N 45°11' E 036°30'0 0.0
2017-Jun-23 11:07N 45°11' E 036°30'0 0.0
2017-Jun-23 10:55N 45°11' E 036°30'0 0.0
2017-Jun-23 09:23N 45°11' E 036°30'4 5.0
2017-Jun-23 08:35N 45°07' E 036°33'2 0.2
2017-Jun-22 21:36N 45°08' E 036°35'5 5.4
2017-Jun-22 20:45N 45°10' E 036°29'3 6.1
2017-Jun-22 20:14N 45°13' E 036°28'2 6.0
2017-Jun-22 19:51N 45°15' E 036°28'3 6.6
2017-Jun-22 19:27N 45°18' E 036°29'3 6.4
2017-Jun-22 19:00N 45°19' E 036°32'3 6.7
2017-Jun-22 18:31N 45°20' E 036°37'3 6.3
2017-Jun-22 18:01N 45°23' E 036°40'3 6.8
2017-Jun-22 17:31N 45°26' E 036°41'3 5.5
2017-Jun-22 17:01N 45°28' E 036°39'1 1.0
2017-Jun-22 16:02N 45°29' E 036°38'0 0.0
2017-Jun-22 15:56N 45°29' E 036°38'0 0.0
2017-Jun-22 13:44N 45°29' E 036°38'0 0.0
2017-Jun-22 13:29N 45°29' E 036°38'0 0.0
2017-Jun-22 10:35N 45°29' E 036°38'0 0.0
2017-Jun-22 10:26N 45°29' E 036°38'0 0.0
2017-Jun-22 09:59N 45°29' E 036°38'0 0.0
2017-Jun-22 09:20N 45°29' E 036°38'0 0.0
2017-Jun-22 08:59N 45°29' E 036°38'0 0.0
2017-Jun-22 08:29N 45°29' E 036°38'0 0.0
2017-Jun-22 07:59N 45°29' E 036°38'0 0.0
2017-Jun-22 07:17N 45°29' E 036°38'0 0.0
2017-Jun-22 06:53N 45°29' E 036°38'0 0.0
2017-Jun-22 06:29N 45°29' E 036°38'0 0.0
2017-Jun-22 05:59N 45°29' E 036°38'0 0.0
2017-Jun-22 05:29N 45°29' E 036°38'0 0.0
2017-Jun-22 04:59N 45°29' E 036°38'0 0.0
2017-Jun-22 04:29N 45°29' E 036°38'0 0.0
2017-Jun-22 03:59N 45°29' E 036°38'0 0.0
2017-Jun-22 02:20N 45°29' E 036°38'0 0.0
2017-Jun-22 01:47N 45°29' E 036°38'0 0.0
2017-Jun-22 01:23N 45°29' E 036°38'0 0.0
2017-Jun-22 00:59N 45°29' E 036°38'0 0.0
2017-Jun-22 00:29N 45°29' E 036°38'0 0.0
2017-Jun-21 23:59N 45°29' E 036°38'0 0.0
2017-Jun-21 23:29N 45°29' E 036°38'0 0.0
2017-Jun-21 22:59N 45°29' E 036°38'0 0.0
2017-Jun-21 22:29N 45°29' E 036°38'0 0.0
2017-Jun-21 21:59N 45°29' E 036°38'0 0.0
2017-Jun-21 21:29N 45°29' E 036°38'0 0.0
2017-Jun-21 20:59N 45°29' E 036°38'0 0.0
2017-Jun-21 20:29N 45°29' E 036°38'1 2.3
2017-Jun-21 20:00N 45°30' E 036°39'3 6.3
2017-Jun-21 19:30N 45°32' E 036°42'  
2017-Jun-18 10:51N 45°29' E 036°43'2 6.5
2017-Jun-18 10:30N 45°27' E 036°42'3 6.9
2017-Jun-18 10:00N 45°24' E 036°41'3 6.3
2017-Jun-18 09:30N 45°21' E 036°38'3 6.3
2017-Jun-18 09:00N 45°20' E 036°34'4 7.2
2017-Jun-18 08:30N 45°18' E 036°30'4 7.0
2017-Jun-18 07:54N 45°14' E 036°28'2 5.3
2017-Jun-18 07:30N 45°12' E 036°30'1 0.0
2017-Jun-17 08:13N 45°12' E 036°28'3 6.3
2017-Jun-17 07:42N 45°15' E 036°28'1 6.0
2017-Jun-17 07:30N 45°16' E 036°28'3 5.4
2017-Jun-17 07:00N 45°19' E 036°31'3 6.1
2017-Jun-17 06:30N 45°20' E 036°35'3 6.0
2017-Jun-17 06:01N 45°21' E 036°39'3 6.2
2017-Jun-17 05:30N 45°24' E 036°41'3 6.2
2017-Jun-17 05:01N 45°27' E 036°40'2 3.3
2017-Jun-17 04:29N 45°28' E 036°39'0 0.1
2017-Jun-17 04:00N 45°28' E 036°39'1 1.2
2017-Jun-17 03:31N 45°29' E 036°39'3 6.3
2017-Jun-17 03:00N 45°30' E 036°43'  
Track history (hours):
 
Tides and Currents Weather Stations Pressure Air Temp Water Temp Dewpoint Dewpoint Depression Visibility Wind Speed Wind Dir Waves Ship Positions

Bataysk

Last reported at 2017-Jun-23 15:37 UTC. Time now 2017-Jun-25 17:21 UTC.
Position N 45°29' E 036°44'.

Length 130 m; draft 2.7 m.

Type: Cargo ship. MMSI: 273347320.

Date/timePositionNaut miles runAvg speedWind from/ knotsBaromVisibWave heightAir tempDewpointWater temp
2017-Jun-23 15:37N 45°29' E 036°44'1 8.1
2017-Jun-23 15:29N 45°28' E 036°43'4 8.1
2017-Jun-23 15:00N 45°25' E 036°41'7 7.4
2017-Jun-23 14:00N 45°20' E 036°34'4 6.8
2017-Jun-23 13:26N 45°17' E 036°29'3 5.7
2017-Jun-23 12:58N 45°15' E 036°29'4 7.9
2017-Jun-23 12:30N 45°11' E 036°29'1 0.7
2017-Jun-23 11:37N 45°11' E 036°30'0 0.0
2017-Jun-23 11:07N 45°11' E 036°30'0 0.0
2017-Jun-23 10:55N 45°11' E 036°30'0 0.0
2017-Jun-23 09:23N 45°11' E 036°30'4 5.0
2017-Jun-23 08:35N 45°07' E 036°33'2 0.2
2017-Jun-22 21:36N 45°08' E 036°35'5 5.4
2017-Jun-22 20:45N 45°10' E 036°29'3 6.1
2017-Jun-22 20:14N 45°13' E 036°28'2 6.0
2017-Jun-22 19:51N 45°15' E 036°28'3 6.6
2017-Jun-22 19:27N 45°18' E 036°29'3 6.4
2017-Jun-22 19:00N 45°19' E 036°32'3 6.7
2017-Jun-22 18:31N 45°20' E 036°37'3 6.3
2017-Jun-22 18:01N 45°23' E 036°40'3 6.8
2017-Jun-22 17:31N 45°26' E 036°41'3 5.5
2017-Jun-22 17:01N 45°28' E 036°39'1 1.0
2017-Jun-22 16:02N 45°29' E 036°38'0 0.0
2017-Jun-22 15:56N 45°29' E 036°38'0 0.0
2017-Jun-22 13:44N 45°29' E 036°38'0 0.0
2017-Jun-22 13:29N 45°29' E 036°38'0 0.0
2017-Jun-22 10:35N 45°29' E 036°38'0 0.0
2017-Jun-22 10:26N 45°29' E 036°38'0 0.0
2017-Jun-22 09:59N 45°29' E 036°38'0 0.0
2017-Jun-22 09:20N 45°29' E 036°38'0 0.0
2017-Jun-22 08:59N 45°29' E 036°38'0 0.0
2017-Jun-22 08:29N 45°29' E 036°38'0 0.0
2017-Jun-22 07:59N 45°29' E 036°38'0 0.0
2017-Jun-22 07:17N 45°29' E 036°38'0 0.0
2017-Jun-22 06:53N 45°29' E 036°38'0 0.0
2017-Jun-22 06:29N 45°29' E 036°38'0 0.0
2017-Jun-22 05:59N 45°29' E 036°38'0 0.0
2017-Jun-22 05:29N 45°29' E 036°38'0 0.0
2017-Jun-22 04:59N 45°29' E 036°38'0 0.0
2017-Jun-22 04:29N 45°29' E 036°38'0 0.0
2017-Jun-22 03:59N 45°29' E 036°38'0 0.0
2017-Jun-22 02:20N 45°29' E 036°38'0 0.0
2017-Jun-22 01:47N 45°29' E 036°38'0 0.0
2017-Jun-22 01:23N 45°29' E 036°38'0 0.0
2017-Jun-22 00:59N 45°29' E 036°38'0 0.0
2017-Jun-22 00:29N 45°29' E 036°38'0 0.0
2017-Jun-21 23:59N 45°29' E 036°38'0 0.0
2017-Jun-21 23:29N 45°29' E 036°38'0 0.0
2017-Jun-21 22:59N 45°29' E 036°38'0 0.0
2017-Jun-21 22:29N 45°29' E 036°38'0 0.0
2017-Jun-21 21:59N 45°29' E 036°38'0 0.0
2017-Jun-21 21:29N 45°29' E 036°38'0 0.0
2017-Jun-21 20:59N 45°29' E 036°38'0 0.0
2017-Jun-21 20:29N 45°29' E 036°38'1 2.3
2017-Jun-21 20:00N 45°30' E 036°39'3 6.3
2017-Jun-21 19:30N 45°32' E 036°42'  
2017-Jun-18 10:51N 45°29' E 036°43'2 6.5
2017-Jun-18 10:30N 45°27' E 036°42'3 6.9
2017-Jun-18 10:00N 45°24' E 036°41'3 6.3
2017-Jun-18 09:30N 45°21' E 036°38'3 6.3
2017-Jun-18 09:00N 45°20' E 036°34'4 7.2
2017-Jun-18 08:30N 45°18' E 036°30'4 7.0
2017-Jun-18 07:54N 45°14' E 036°28'2 5.3
2017-Jun-18 07:30N 45°12' E 036°30'1 0.0
2017-Jun-17 08:13N 45°12' E 036°28'3 6.3
2017-Jun-17 07:42N 45°15' E 036°28'1 6.0
2017-Jun-17 07:30N 45°16' E 036°28'3 5.4
2017-Jun-17 07:00N 45°19' E 036°31'3 6.1
2017-Jun-17 06:30N 45°20' E 036°35'3 6.0
2017-Jun-17 06:01N 45°21' E 036°39'3 6.2
2017-Jun-17 05:30N 45°24' E 036°41'3 6.2
2017-Jun-17 05:01N 45°27' E 036°40'2 3.3
2017-Jun-17 04:29N 45°28' E 036°39'0 0.1
2017-Jun-17 04:00N 45°28' E 036°39'1 1.2
2017-Jun-17 03:31N 45°29' E 036°39'3 6.3
2017-Jun-17 03:00N 45°30' E 036°43'  

Dump ship's entire track history